createdAt,value
2023-04-12T00:01:13.343Z,0.33
2023-04-12T00:03:40.272Z,0.00
2023-04-12T00:06:07.553Z,0.00
2023-04-12T00:08:35.422Z,1.67
2023-04-12T00:11:04.054Z,0.00
2023-04-12T00:13:31.327Z,0.67
2023-04-12T00:15:59.440Z,1.25
2023-04-12T00:18:26.398Z,0.00
2023-04-12T00:20:53.619Z,0.33
2023-04-12T00:23:21.036Z,0.00
2023-04-12T00:25:48.209Z,0.00
2023-04-12T00:28:16.183Z,0.00
2023-04-12T00:30:43.928Z,0.00
2023-04-12T00:33:10.728Z,1.00
2023-04-12T00:35:37.799Z,0.00
2023-04-12T00:38:10.371Z,0.33
2023-04-12T00:40:41.901Z,4.00
2023-04-12T00:43:10.413Z,1.00
2023-04-12T00:45:37.698Z,0.00
2023-04-12T00:48:06.395Z,0.33
2023-04-12T00:50:33.131Z,0.33
2023-04-12T00:53:00.199Z,0.00
2023-04-12T00:55:27.007Z,1.67
2023-04-12T00:57:54.197Z,1.00
2023-04-12T01:00:21.715Z,0.00
2023-04-12T01:02:50.797Z,1.00
2023-04-12T01:05:23.913Z,1.33
2023-04-12T01:07:54.439Z,0.33
2023-04-12T01:10:30.648Z,0.00
2023-04-12T01:13:27.200Z,0.00
2023-04-12T01:16:04.178Z,2.75
2023-04-12T01:18:40.934Z,1.00
2023-04-12T01:21:16.722Z,1.67
2023-04-12T01:24:13.850Z,3.00
2023-04-12T01:26:49.554Z,0.00
2023-04-12T01:29:19.721Z,1.00
2023-04-12T01:31:55.100Z,2.00
2023-04-12T01:34:23.519Z,3.00
2023-04-12T01:36:52.002Z,0.00
2023-04-12T01:39:19.009Z,4.33
2023-04-12T01:41:49.107Z,3.00
2023-04-12T01:44:17.149Z,1.00
2023-04-12T01:46:48.188Z,3.00
2023-04-12T01:49:36.376Z,5.33
2023-04-12T01:52:12.423Z,3.00
2023-04-12T01:54:42.896Z,1.00
2023-04-12T01:57:11.128Z,0.67
2023-04-12T01:59:45.712Z,1.00
2023-04-12T02:02:13.815Z,4.00
2023-04-12T02:04:42.340Z,3.00
2023-04-12T02:07:09.706Z,0.00
2023-04-12T02:09:41.088Z,0.00
2023-04-12T02:12:08.001Z,0.00
2023-04-12T02:14:34.832Z,0.33
2023-04-12T02:17:05.154Z,1.67
2023-04-12T02:19:32.718Z,1.00
2023-04-12T02:21:59.480Z,3.00
2023-04-12T02:24:27.500Z,1.00
2023-04-12T02:26:55.079Z,1.00
2023-04-12T02:29:22.078Z,4.00
2023-04-12T02:31:48.916Z,1.00
2023-04-12T02:34:18.024Z,0.00
2023-04-12T02:36:49.134Z,3.00
2023-04-12T02:39:18.694Z,1.00
2023-04-12T02:41:46.206Z,3.00
2023-04-12T02:44:13.224Z,1.00
2023-04-12T02:46:40.125Z,1.00
2023-04-12T02:49:07.066Z,3.00
2023-04-12T02:51:33.827Z,0.00
2023-04-12T02:54:01.417Z,1.00
2023-04-12T02:56:30.078Z,1.00
2023-04-12T02:58:58.351Z,1.00
2023-04-12T03:01:25.114Z,0.00
2023-04-12T03:03:52.377Z,3.00
2023-04-12T03:06:19.100Z,2.33
2023-04-12T03:08:46.035Z,2.33
2023-04-12T03:11:13.046Z,3.00
2023-04-12T03:13:39.781Z,1.00
2023-04-12T03:16:23.687Z,3.00
2023-04-12T03:18:51.738Z,1.00
2023-04-12T03:21:19.256Z,4.00
2023-04-12T03:23:46.153Z,7.00
2023-04-12T03:26:13.111Z,1.00
2023-04-12T03:28:41.658Z,1.00
2023-04-12T03:31:09.019Z,3.00
2023-04-12T03:33:35.934Z,1.67
2023-04-12T03:36:02.978Z,3.33
2023-04-12T03:38:31.145Z,6.50
2023-04-12T03:40:57.944Z,2.33
2023-04-12T03:43:24.818Z,3.00
2023-04-12T03:45:51.772Z,1.00
2023-04-12T03:48:18.958Z,1.00
2023-04-12T03:50:45.940Z,6.00
2023-04-12T03:53:12.817Z,1.00
2023-04-12T03:55:39.718Z,7.00
2023-04-12T03:58:06.614Z,6.00
2023-04-12T04:00:33.799Z,3.00
2023-04-12T04:03:03.538Z,4.00
2023-04-12T04:05:31.621Z,3.00
2023-04-12T04:08:00.932Z,0.33
2023-04-12T04:10:29.158Z,1.00
2023-04-12T04:12:55.963Z,0.67
2023-04-12T04:15:23.981Z,1.00
2023-04-12T04:17:52.539Z,1.00
2023-04-12T04:20:21.869Z,1.00
2023-04-12T04:22:49.014Z,6.00
2023-04-12T04:25:16.614Z,3.00
2023-04-12T04:27:45.066Z,6.33
2023-04-12T04:30:13.139Z,3.67
2023-04-12T04:32:40.547Z,3.00
2023-04-12T04:35:08.815Z,5.25
2023-04-12T04:37:35.515Z,3.67
2023-04-12T04:40:11.719Z,3.75
2023-04-12T04:42:39.965Z,4.00
2023-04-12T04:45:13.938Z,4.00
2023-04-12T04:47:41.346Z,3.33
2023-04-12T04:50:08.818Z,1.00
2023-04-12T04:52:37.784Z,2.33
2023-04-12T04:55:07.937Z,4.50
2023-04-12T04:57:36.620Z,1.67
2023-04-12T05:00:11.310Z,3.67
2023-04-12T05:02:40.488Z,4.00
2023-04-12T05:05:09.094Z,5.50
2023-04-12T05:07:37.053Z,4.67
2023-04-12T05:10:04.719Z,4.00
2023-04-12T05:12:31.791Z,3.67
2023-04-12T05:15:11.069Z,1.50
2023-04-12T05:17:38.637Z,4.00
2023-04-12T05:20:08.701Z,3.75
2023-04-12T05:22:36.565Z,6.75
2023-04-12T05:25:04.231Z,6.00
2023-04-12T05:27:31.974Z,4.00
2023-04-12T05:29:59.321Z,5.33
2023-04-12T05:32:26.585Z,12.00
2023-04-12T05:34:54.598Z,3.75
2023-04-12T05:37:22.375Z,6.00
2023-04-12T05:39:50.315Z,7.50
2023-04-12T05:42:18.109Z,10.00
2023-04-12T05:44:46.943Z,9.00
2023-04-12T05:47:14.846Z,3.33
2023-04-12T05:49:41.674Z,6.00
2023-04-12T05:52:09.389Z,6.25
2023-04-12T05:54:37.086Z,5.50
2023-04-12T05:57:04.088Z,4.00
2023-04-12T05:59:31.101Z,4.00
2023-04-12T06:01:59.306Z,5.25
2023-04-12T06:04:42.041Z,6.25
2023-04-12T06:07:17.866Z,4.00
2023-04-12T06:09:44.744Z,1.00
2023-04-12T06:12:12.572Z,5.50
2023-04-12T06:14:40.510Z,4.00
2023-04-12T06:17:07.606Z,5.00
2023-04-12T06:19:34.379Z,6.00
2023-04-12T06:22:01.317Z,4.33
2023-04-12T06:24:28.384Z,9.00
2023-04-12T06:26:55.273Z,4.00
2023-04-12T06:29:22.123Z,6.67
2023-04-12T06:31:49.103Z,3.00
2023-04-12T06:34:16.058Z,4.00
2023-04-12T06:36:43.685Z,5.67
2023-04-12T06:39:12.193Z,6.00
2023-04-12T06:41:38.939Z,3.00
2023-04-12T06:44:06.139Z,5.00
2023-04-12T06:46:32.955Z,3.33
2023-04-12T06:49:00.099Z,7.00
2023-04-12T06:51:28.285Z,5.33
2023-04-12T06:53:56.267Z,4.00
2023-04-12T06:56:23.264Z,7.33
2023-04-12T06:58:49.961Z,4.00
2023-04-12T07:01:17.919Z,4.33
2023-04-12T07:03:45.058Z,5.00
2023-04-12T07:06:24.428Z,6.00
2023-04-12T07:08:52.877Z,9.33
2023-04-12T07:11:23.044Z,5.00
2023-04-12T07:13:51.855Z,2.50
2023-04-12T07:16:19.660Z,2.00
2023-04-12T07:18:46.640Z,4.00
2023-04-12T07:21:14.699Z,4.75
2023-04-12T07:23:42.550Z,7.00
2023-04-12T07:26:10.756Z,10.25
2023-04-12T07:28:39.184Z,4.00
2023-04-12T07:31:07.300Z,4.00
2023-04-12T07:33:36.211Z,4.50
2023-04-12T07:36:04.966Z,5.00
2023-04-12T07:38:32.755Z,2.50
2023-04-12T07:40:59.446Z,6.00
2023-04-12T07:43:27.550Z,5.75
2023-04-12T07:45:56.442Z,6.00
2023-04-12T07:48:24.507Z,4.50
2023-04-12T07:50:52.333Z,7.50
2023-04-12T07:53:27.989Z,2.50
2023-04-12T07:55:56.371Z,4.33
2023-04-12T07:58:24.943Z,6.00
2023-04-12T08:00:52.453Z,5.00
2023-04-12T08:03:20.188Z,11.75
2023-04-12T08:05:49.758Z,6.00
2023-04-12T08:08:16.886Z,12.50
2023-04-12T08:10:44.408Z,5.25
2023-04-12T08:13:12.140Z,4.75
2023-04-12T08:15:39.723Z,8.50
2023-04-12T08:18:09.869Z,5.75
2023-04-12T08:20:42.957Z,5.00
2023-04-12T08:23:11.711Z,4.75
2023-04-12T08:25:39.805Z,5.00
2023-04-12T08:28:11.012Z,5.75
2023-04-12T08:30:40.521Z,6.00
2023-04-12T08:33:13.819Z,2.00
2023-04-12T08:35:41.464Z,4.00
2023-04-12T08:38:09.182Z,4.00
2023-04-12T08:40:37.888Z,5.25
2023-04-12T08:43:08.684Z,4.00
2023-04-12T08:45:36.698Z,4.00
2023-04-12T08:48:07.257Z,5.00
2023-04-12T08:50:34.879Z,3.75
2023-04-12T08:53:03.161Z,6.00
2023-04-12T08:55:31.200Z,4.00
2023-04-12T08:58:00.163Z,2.00
2023-04-12T09:00:28.090Z,5.00
2023-04-12T09:02:58.772Z,5.50
2023-04-12T09:05:30.104Z,2.00
2023-04-12T09:07:58.746Z,5.50
2023-04-12T09:10:37.994Z,2.25
2023-04-12T09:13:06.675Z,2.75
2023-04-12T09:15:35.236Z,5.75
2023-04-12T09:18:08.455Z,5.00
2023-04-12T09:20:36.417Z,2.00
2023-04-12T09:23:27.066Z,5.00
2023-04-12T09:25:54.676Z,5.00
2023-04-12T09:28:26.925Z,6.00
2023-04-12T09:30:56.323Z,4.25
2023-04-12T09:33:38.213Z,2.50
2023-04-12T09:36:17.654Z,5.00
2023-04-12T09:39:05.423Z,5.25
2023-04-12T09:41:33.545Z,6.00
2023-04-12T09:44:03.766Z,6.50
2023-04-12T09:46:31.715Z,8.50
2023-04-12T09:49:00.017Z,7.00
2023-04-12T09:51:29.683Z,6.00
2023-04-12T09:54:00.744Z,5.50
2023-04-12T09:56:35.756Z,5.00
2023-04-12T09:59:05.554Z,3.00
2023-04-12T10:01:39.537Z,5.00
2023-04-12T10:04:08.889Z,6.00
2023-04-12T10:06:37.341Z,7.00
2023-04-12T10:09:05.738Z,5.00
2023-04-12T10:11:34.158Z,7.50
2023-04-12T10:14:07.126Z,2.75
2023-04-12T10:16:35.291Z,2.00
2023-04-12T10:19:04.304Z,3.00
2023-04-12T10:21:33.147Z,4.50
2023-04-12T10:24:01.014Z,2.50
2023-04-12T10:26:29.053Z,3.00
2023-04-12T10:29:26.381Z,2.00
2023-04-12T10:31:58.396Z,3.00
2023-04-12T10:34:29.798Z,2.00
2023-04-12T10:37:01.698Z,4.75
2023-04-12T10:39:39.229Z,4.00
2023-04-12T10:42:20.421Z,3.00
2023-04-12T10:44:48.585Z,3.75
2023-04-12T10:47:17.461Z,2.00
2023-04-12T10:50:21.014Z,2.50
2023-04-12T10:53:12.490Z,2.00
2023-04-12T10:55:40.915Z,2.25
2023-04-12T10:58:07.860Z,4.00
2023-04-12T11:00:57.098Z,1.00
2023-04-12T11:03:25.891Z,2.00
2023-04-12T11:06:16.235Z,2.25
2023-04-12T11:08:56.673Z,2.00
2023-04-12T11:11:27.179Z,1.25
2023-04-12T11:13:59.617Z,3.50
2023-04-12T11:16:27.463Z,2.00
2023-04-12T11:18:54.488Z,3.00
2023-04-12T11:21:22.534Z,2.00
2023-04-12T11:23:51.093Z,2.00
2023-04-12T11:26:22.854Z,2.25
2023-04-12T11:28:53.241Z,1.00
2023-04-12T11:31:21.938Z,1.75
2023-04-12T11:33:49.596Z,2.25
2023-04-12T11:36:17.732Z,2.00
2023-04-12T11:38:47.400Z,1.00
2023-04-12T11:41:15.069Z,2.00
2023-04-12T11:43:43.302Z,1.50
2023-04-12T11:46:10.716Z,2.00
2023-04-12T11:48:41.395Z,1.00
2023-04-12T11:51:25.649Z,1.75
2023-04-12T11:53:54.681Z,1.00
2023-04-12T11:56:21.943Z,2.00
2023-04-12T11:58:49.261Z,3.00
2023-04-12T12:01:19.206Z,0.25
2023-04-12T12:03:47.694Z,1.00
2023-04-12T12:06:17.102Z,2.50
2023-04-12T12:08:44.473Z,5.00
2023-04-12T12:11:11.616Z,2.00
2023-04-12T12:13:46.124Z,1.00
2023-04-12T12:16:14.521Z,2.00
2023-04-12T12:19:06.863Z,3.50
2023-04-12T12:21:33.793Z,2.00
2023-04-12T12:24:14.482Z,3.00
2023-04-12T12:26:42.623Z,3.50
2023-04-12T12:29:17.610Z,3.00
2023-04-12T12:31:50.238Z,4.50
2023-04-12T12:34:19.962Z,2.00
2023-04-12T12:36:58.044Z,2.75
2023-04-12T12:39:24.811Z,3.50
2023-04-12T12:41:56.563Z,2.00
2023-04-12T12:44:24.516Z,2.00
2023-04-12T12:46:56.809Z,1.00
2023-04-12T12:49:30.032Z,3.00
2023-04-12T12:51:56.886Z,5.00
2023-04-12T12:54:39.439Z,3.00
2023-04-12T12:57:07.757Z,3.00
2023-04-12T12:59:34.743Z,2.00
2023-04-12T13:02:02.096Z,2.00
2023-04-12T13:04:30.025Z,3.25
2023-04-12T13:06:57.039Z,2.00
2023-04-12T13:09:23.835Z,3.50
2023-04-12T13:11:50.883Z,2.00
2023-04-12T13:14:17.672Z,2.00
2023-04-12T13:16:46.211Z,2.00
2023-04-12T13:19:13.129Z,4.00
2023-04-12T13:21:40.050Z,3.00
2023-04-12T13:24:06.991Z,3.00
2023-04-12T13:26:34.062Z,2.00
2023-04-12T13:29:01.500Z,2.50
2023-04-12T13:31:28.582Z,2.50
2023-04-12T13:33:55.425Z,3.50
2023-04-12T13:36:22.211Z,5.50
2023-04-12T13:38:49.000Z,2.00
2023-04-12T13:41:15.770Z,4.00
2023-04-12T13:43:42.607Z,5.00
2023-04-12T13:46:09.357Z,2.00
2023-04-12T13:48:36.243Z,6.00
2023-04-12T13:51:03.791Z,9.50
2023-04-12T13:53:31.169Z,5.00
2023-04-12T13:55:57.914Z,2.50
2023-04-12T13:58:25.942Z,4.00
2023-04-12T14:00:54.591Z,2.00
2023-04-12T14:03:22.869Z,3.00
2023-04-12T14:05:49.862Z,1.00
2023-04-12T14:08:16.679Z,3.00
2023-04-12T14:10:43.521Z,4.00
2023-04-12T14:13:11.332Z,2.00
2023-04-12T14:15:38.119Z,5.00
2023-04-12T14:18:04.856Z,3.00
2023-04-12T14:20:31.666Z,3.00
2023-04-12T14:22:58.533Z,2.00
2023-04-12T14:25:25.391Z,4.50
2023-04-12T14:27:52.309Z,4.00
2023-04-12T14:30:19.296Z,4.00
2023-04-12T14:32:47.694Z,8.50
2023-04-12T14:35:17.119Z,6.00
2023-04-12T14:37:43.975Z,7.00
2023-04-12T14:40:11.810Z,7.50
2023-04-12T14:42:40.687Z,3.60
2023-04-12T14:45:09.776Z,4.00
2023-04-12T14:47:37.125Z,5.50
2023-04-12T14:50:06.217Z,7.00
2023-04-12T14:52:33.023Z,5.50
2023-04-12T14:55:01.678Z,6.00
2023-04-12T14:57:29.290Z,3.00
2023-04-12T14:59:58.192Z,5.40
2023-04-12T15:02:26.353Z,3.33
2023-04-12T15:04:54.323Z,1.00
2023-04-12T15:07:24.364Z,4.00
2023-04-12T15:09:53.166Z,3.00
2023-04-12T15:12:27.643Z,5.00
2023-04-12T15:14:58.872Z,2.00
2023-04-12T15:17:28.546Z,6.00
2023-04-12T15:19:55.765Z,7.50
2023-04-12T15:22:26.696Z,7.00
2023-04-12T15:24:53.636Z,3.00
2023-04-12T15:27:20.519Z,3.00
2023-04-12T15:29:47.440Z,3.50
2023-04-12T15:32:14.163Z,3.00
2023-04-12T15:34:41.489Z,3.00
2023-04-12T15:37:10.854Z,3.75
2023-04-12T15:39:40.408Z,2.00
2023-04-12T15:42:07.749Z,4.00
2023-04-12T15:44:34.663Z,4.00
2023-04-12T15:47:11.089Z,5.00
2023-04-12T15:49:40.236Z,3.00
2023-04-12T15:52:07.206Z,3.00
2023-04-12T15:54:38.543Z,5.00
2023-04-12T15:57:11.161Z,5.50
2023-04-12T15:59:41.840Z,5.00
2023-04-12T16:02:10.178Z,6.00
2023-04-12T16:04:38.106Z,4.00
2023-04-12T16:07:05.910Z,5.00
2023-04-12T16:09:34.566Z,6.00
2023-04-12T16:12:04.416Z,3.25
2023-04-12T16:14:33.124Z,6.50
2023-04-12T16:17:00.049Z,11.50
2023-04-12T16:19:28.035Z,5.00
2023-04-12T16:21:57.176Z,6.00
2023-04-12T16:24:23.973Z,9.00
2023-04-12T16:26:50.877Z,9.00
2023-04-12T16:29:17.660Z,6.50
2023-04-12T16:31:44.531Z,8.00
2023-04-12T16:34:11.699Z,6.50
2023-04-12T16:36:39.309Z,8.00
2023-04-12T16:39:06.856Z,9.00
2023-04-12T16:41:33.916Z,9.50
2023-04-12T16:44:03.337Z,7.00
2023-04-12T16:46:30.396Z,6.00
2023-04-12T16:48:59.292Z,9.00
2023-04-12T16:51:27.278Z,8.00
2023-04-12T16:54:03.954Z,10.50
2023-04-12T16:56:31.123Z,9.50
2023-04-12T16:59:00.179Z,16.33
2023-04-12T17:01:27.074Z,15.00
2023-04-12T17:03:54.898Z,12.00
2023-04-12T17:06:24.163Z,20.00
2023-04-12T17:08:51.951Z,20.33
2023-04-12T17:11:18.750Z,24.00
2023-04-12T17:13:46.938Z,22.50
2023-04-12T17:16:16.387Z,19.00
2023-04-12T17:18:44.341Z,22.00
2023-04-12T17:21:12.424Z,15.00
2023-04-12T17:23:40.376Z,21.00
2023-04-12T17:26:08.918Z,21.67
2023-04-12T17:28:39.903Z,24.67
2023-04-12T17:31:09.011Z,23.33
2023-04-12T17:33:40.382Z,24.00
2023-04-12T17:36:11.376Z,24.00
2023-04-12T17:38:38.638Z,25.50
2023-04-12T17:41:09.390Z,23.67
2023-04-12T17:43:37.079Z,27.00
2023-04-12T17:46:05.901Z,22.50
2023-04-12T17:48:34.823Z,31.00
2023-04-12T17:51:04.307Z,34.33
2023-04-12T17:53:32.584Z,28.00
2023-04-12T17:56:03.765Z,32.67
2023-04-12T17:58:34.094Z,29.00
2023-04-12T18:01:03.044Z,33.33
2023-04-12T18:03:31.758Z,38.67
2023-04-12T18:06:18.655Z,37.33
2023-04-12T18:08:47.238Z,45.00
2023-04-12T18:11:16.631Z,47.00
2023-04-12T18:13:50.025Z,47.67
2023-04-12T18:16:18.080Z,47.00
2023-04-12T18:18:48.071Z,58.67
2023-04-12T18:21:21.044Z,54.00
2023-04-12T18:23:50.551Z,55.67
2023-04-12T18:26:19.332Z,52.00
2023-04-12T18:28:47.425Z,48.33
2023-04-12T18:31:16.190Z,56.33
2023-04-12T18:33:45.543Z,39.67
2023-04-12T18:36:14.993Z,56.67
2023-04-12T18:38:44.416Z,71.00
2023-04-12T18:41:15.717Z,63.33
2023-04-12T18:43:43.835Z,64.33
2023-04-12T18:46:19.725Z,70.67
2023-04-12T18:48:49.493Z,69.00
2023-04-12T18:51:18.372Z,67.67
2023-04-12T18:53:48.419Z,61.33
2023-04-12T18:56:23.214Z,77.33
2023-04-12T18:58:55.516Z,65.33
2023-04-12T19:01:25.576Z,74.33
2023-04-12T19:03:54.506Z,74.67
2023-04-12T19:06:23.437Z,77.33
2023-04-12T19:08:52.372Z,74.33
2023-04-12T19:11:21.396Z,73.33
2023-04-12T19:13:51.804Z,66.33
2023-04-12T19:16:20.458Z,68.67
2023-04-12T19:18:49.384Z,90.33
2023-04-12T19:21:18.292Z,75.33
2023-04-12T19:23:46.975Z,83.33
2023-04-12T19:26:17.138Z,84.00
2023-04-12T19:28:46.464Z,88.33
2023-04-12T19:31:15.514Z,82.33
2023-04-12T19:33:42.463Z,88.50
2023-04-12T19:36:11.944Z,84.67
2023-04-12T19:38:43.184Z,87.00
2023-04-12T19:41:12.202Z,80.75
2023-04-12T19:43:41.478Z,82.00
2023-04-12T19:46:10.250Z,81.00
2023-04-12T19:48:38.924Z,83.75
2023-04-12T19:51:07.770Z,80.33
2023-04-12T19:53:36.578Z,78.00
2023-04-12T19:56:05.973Z,74.67
2023-04-12T19:58:34.845Z,73.67
2023-04-12T20:01:04.407Z,71.67
2023-04-12T20:03:33.316Z,80.33
2023-04-12T20:06:04.687Z,87.67
2023-04-12T20:08:33.747Z,76.67
2023-04-12T20:11:02.776Z,81.33
2023-04-12T20:13:32.134Z,87.67
2023-04-12T20:16:01.440Z,85.67
2023-04-12T20:18:30.734Z,94.00
2023-04-12T20:20:59.725Z,94.00
2023-04-12T20:23:28.709Z,96.33
2023-04-12T20:25:57.581Z,87.00
2023-04-12T20:28:26.743Z,91.33
2023-04-12T20:30:55.649Z,88.33
2023-04-12T20:33:24.698Z,94.67
2023-04-12T20:35:54.178Z,93.67
2023-04-12T20:38:23.526Z,94.67
2023-04-12T20:40:52.470Z,94.67
2023-04-12T20:43:21.166Z,83.67
2023-04-12T20:45:51.114Z,84.00
2023-04-12T20:48:20.163Z,76.00
2023-04-12T20:50:50.427Z,80.67
2023-04-12T20:53:19.105Z,70.33
2023-04-12T20:55:47.984Z,67.33
2023-04-12T20:58:17.798Z,63.00
2023-04-12T21:00:47.746Z,65.00
2023-04-12T21:06:05.533Z,80.33
2023-04-12T21:08:35.404Z,68.67
2023-04-12T21:11:04.060Z,47.67
2023-04-12T21:13:31.838Z,46.33
2023-04-12T21:16:02.680Z,42.33
2023-04-12T21:18:34.514Z,38.33
2023-04-12T21:21:03.867Z,38.00
2023-04-12T21:23:31.745Z,29.50
2023-04-12T21:25:59.336Z,28.50
2023-04-12T21:28:29.812Z,37.33
2023-04-12T21:30:59.274Z,43.00
2023-04-12T21:33:27.909Z,36.00
2023-04-12T21:35:56.732Z,47.00
2023-04-12T21:38:25.713Z,40.33
2023-04-12T21:40:57.522Z,38.00
2023-04-12T21:43:25.544Z,33.50
2023-04-12T21:45:54.758Z,32.50
2023-04-12T21:48:22.649Z,33.50
2023-04-12T21:50:50.514Z,33.00
2023-04-12T21:53:18.202Z,29.67
2023-04-12T21:55:46.169Z,35.00
2023-04-12T21:58:13.196Z,28.00
2023-04-12T22:00:40.601Z,29.00
2023-04-12T22:03:08.603Z,35.33
2023-04-12T22:05:36.382Z,27.33
2023-04-12T22:08:05.350Z,27.00
2023-04-12T22:10:35.295Z,31.50
2023-04-12T22:13:02.560Z,19.50
2023-04-12T22:15:31.125Z,26.00
2023-04-12T22:17:58.059Z,28.00
2023-04-12T22:20:25.065Z,30.00
2023-04-12T22:22:51.874Z,28.00
2023-04-12T22:25:20.160Z,22.67
2023-04-12T22:27:48.701Z,27.67
2023-04-12T22:30:16.679Z,31.00
2023-04-12T22:32:44.901Z,25.00
2023-04-12T22:35:12.850Z,27.50
2023-04-12T22:37:41.368Z,29.00
2023-04-12T22:40:12.594Z,27.00
2023-04-12T22:42:47.579Z,22.00
2023-04-12T22:45:17.248Z,29.00
2023-04-12T22:47:45.618Z,23.00
2023-04-12T22:50:13.043Z,24.50
2023-04-12T22:52:42.111Z,26.33
2023-04-12T22:55:14.625Z,25.00
2023-04-12T22:57:42.349Z,33.67
2023-04-12T23:00:15.747Z,20.00
2023-04-12T23:02:46.707Z,23.67
2023-04-12T23:05:14.769Z,25.33
2023-04-12T23:07:41.793Z,19.00
2023-04-12T23:10:10.921Z,18.67
2023-04-12T23:12:39.279Z,27.00
2023-04-12T23:15:06.552Z,18.50
2023-04-12T23:17:34.009Z,23.50
2023-04-12T23:20:02.184Z,24.67
2023-04-12T23:22:47.937Z,35.33
2023-04-12T23:25:39.143Z,21.33
2023-04-12T23:28:14.309Z,23.00
2023-04-12T23:30:51.606Z,22.00
2023-04-12T23:33:21.885Z,23.17
2023-04-12T23:35:53.234Z,23.50
2023-04-12T23:38:32.784Z,27.00
2023-04-12T23:41:02.508Z,23.00
2023-04-12T23:43:32.558Z,19.33
2023-04-12T23:46:01.881Z,14.00
2023-04-12T23:48:31.635Z,20.67
2023-04-12T23:50:59.199Z,29.50
2023-04-12T23:53:28.141Z,20.40
2023-04-12T23:55:55.000Z,19.00
2023-04-12T23:58:22.738Z,20.33
